Time;durP1;ratioP1;P1;durP2;ratioP2;P2;SDS_P1;SDS_P2;PMS_P1;PMS_P2;Temp;Humidity;BMP_temperature;BMP_pressure;BME280_temperature;BME280_humidity;BME280_pressure;Samples;Min_cycle;Max_cycle;Signal;HPM_P1;HPM_P2
2024/02/27 00:01:16;;;;;;;;;;;;;;;-4.29;100.00;101542.48;109437;1253;67576;-54
2024/02/27 00:03:44;;;;;;;;;;;;;;;-4.32;100.00;101535.47;109477;1253;73440;-53
2024/02/27 00:06:12;;;;;;;;;;;;;;;-4.34;100.00;101534.54;109427;1256;61831;-53
2024/02/27 00:08:39;;;;;;;;;;;;;;;-4.35;100.00;101535.74;109481;1251;59864;-53
2024/02/27 00:11:07;;;;;;;;;;;;;;;-4.36;100.00;101535.27;109470;1251;73935;-53
2024/02/27 00:13:34;;;;;;;;;;;;;;;-4.40;100.00;101527.76;109430;1251;67682;-53
2024/02/27 00:16:02;;;;;;;;;;;;;;;-4.42;100.00;101527.15;109452;1252;72712;-53
2024/02/27 00:18:29;;;;;;;;;;;;;;;-4.44;100.00;101517.40;109466;1252;60525;-52
2024/02/27 00:20:57;;;;;;;;;;;;;;;-4.45;100.00;101512.52;109495;1251;59924;-53
2024/02/27 00:23:24;;;;;;;;;;;;;;;-4.47;100.00;101510.37;109472;1252;73807;-52
2024/02/27 00:25:52;;;;;;;;;;;;;;;-4.48;100.00;101513.13;109425;1253;65942;-60
2024/02/27 00:28:19;;;;;;;;;;;;;;;-4.49;100.00;101513.35;109425;1253;71387;-53
2024/02/27 00:30:47;;;;;;;;;;;;;;;-4.51;100.00;101505.77;109466;1252;59469;-52
2024/02/27 00:33:14;;;;;;;;;;;;;;;-4.51;100.00;101502.73;109463;1252;59927;-52
2024/02/27 00:35:42;;;;;;;;;;;;;;;-4.53;100.00;101506.02;109487;1251;73430;-53
2024/02/27 00:38:10;;;;;;;;;;;;;;;-4.55;100.00;101499.16;109427;1252;67615;-53
2024/02/27 00:40:38;;;;;;;;;;;;;;;-4.59;100.00;101498.45;109462;1253;71456;-53
2024/02/27 00:43:05;;;;;;;;;;;;;;;-4.63;100.00;101500.29;109481;1251;59425;-53
2024/02/27 00:45:33;;;;;;;;;;;;;;;-4.65;100.00;101501.20;109480;1253;59017;-54
2024/02/27 00:48:01;;;;;;;;;;;;;;;-4.66;100.00;101502.25;109410;1253;74785;-53
2024/02/27 00:50:29;;;;;;;;;;;;;;;-4.65;100.00;101496.96;109512;1252;66957;-53
2024/02/27 00:52:56;;;;;;;;;;;;;;;-4.65;100.00;101501.38;109470;1251;72475;-52
2024/02/27 00:55:24;;;;;;;;;;;;;;;-4.64;100.00;101498.63;109428;1253;58978;-54
2024/02/27 00:57:51;;;;;;;;;;;;;;;-4.63;100.00;101497.92;109434;1251;59570;-57
2024/02/27 01:00:19;;;;;;;;;;;;;;;-4.65;100.00;101502.40;109468;1252;73469;-52
2024/02/27 01:02:47;;;;;;;;;;;;;;;-4.66;100.00;101500.05;109466;1251;65781;-53
2024/02/27 01:05:14;;;;;;;;;;;;;;;-4.66;100.00;101502.26;109490;1252;72694;-52
2024/02/27 01:07:45;;;;;;;;;;;;;;;-4.67;100.00;101497.02;109486;1252;59239;-54
2024/02/27 01:10:12;;;;;;;;;;;;;;;-4.67;100.00;101503.48;109436;1252;59787;-53
2024/02/27 01:12:40;;;;;;;;;;;;;;;-4.68;100.00;101504.88;109484;1252;74739;-53
2024/02/27 01:15:08;;;;;;;;;;;;;;;-4.69;100.00;101503.90;109446;1253;67023;-53
2024/02/27 01:17:35;;;;;;;;;;;;;;;-4.71;100.00;101506.83;109476;1253;72600;-52
2024/02/27 01:20:03;;;;;;;;;;;;;;;-4.72;100.00;101500.77;109465;1253;59398;-60
2024/02/27 01:22:31;;;;;;;;;;;;;;;-4.75;100.00;101497.14;109440;1253;59901;-55
2024/02/27 01:24:59;;;;;;;;;;;;;;;-4.76;100.00;101498.89;109458;1253;74709;-53
2024/02/27 01:27:26;;;;;;;;;;;;;;;-4.77;100.00;101505.20;109508;1252;66937;-53
2024/02/27 01:29:54;;;;;;;;;;;;;;;-4.78;100.00;101507.76;109464;1252;71434;-55
2024/02/27 01:32:22;;;;;;;;;;;;;;;-4.78;100.00;101508.61;109417;1253;59209;-54
2024/02/27 01:34:49;;;;;;;;;;;;;;;-4.79;100.00;101509.16;109403;1253;59242;-53
2024/02/27 01:37:17;;;;;;;;;;;;;;;-4.80;100.00;101510.89;109493;1253;75244;-54
2024/02/27 01:39:46;;;;;;;;;;;;;;;-4.81;100.00;101512.62;109522;1251;65634;-52
2024/02/27 01:42:13;;;;;;;;;;;;;;;-4.83;100.00;101507.27;109453;1253;72690;-54
2024/02/27 01:44:51;;;;;;;;;;;;;;;-4.85;100.00;101509.88;109439;1253;59419;-54
2024/02/27 01:47:19;;;;;;;;;;;;;;;-4.87;100.00;101507.91;109500;1251;59019;-52
2024/02/27 01:49:47;;;;;;;;;;;;;;;-4.89;100.00;101509.02;109490;1251;74686;-56
2024/02/27 01:52:14;;;;;;;;;;;;;;;-4.91;100.00;101503.80;109503;1251;66199;-55
2024/02/27 01:54:42;;;;;;;;;;;;;;;-4.90;100.00;101510.37;109333;1257;73618;-53
2024/02/27 01:57:09;;;;;;;;;;;;;;;-4.90;100.00;101516.48;109379;1252;60787;-53
2024/02/27 01:59:37;;;;;;;;;;;;;;;-4.90;100.00;101516.46;109413;1252;58938;-53
2024/02/27 02:02:05;;;;;;;;;;;;;;;-4.91;100.00;101515.35;109341;1252;75144;-53
2024/02/27 02:04:32;;;;;;;;;;;;;;;-4.94;100.00;101520.70;109297;1253;66208;-55
2024/02/27 02:07:01;;;;;;;;;;;;;;;-4.96;100.00;101521.45;109424;1254;72750;-54
2024/02/27 02:09:29;;;;;;;;;;;;;;;-4.98;100.00;101521.71;109404;1253;61707;-53
2024/02/27 02:11:58;;;;;;;;;;;;;;;-4.98;100.00;101521.17;109463;1253;58953;-53
2024/02/27 02:14:26;;;;;;;;;;;;;;;-4.94;100.00;101523.42;109432;1251;74759;-53
2024/02/27 02:16:53;;;;;;;;;;;;;;;-4.93;100.00;101523.90;109469;1251;67044;-52
2024/02/27 02:19:21;;;;;;;;;;;;;;;-4.95;100.00;101522.62;109494;1252;72745;-52
2024/02/27 02:21:52;;;;;;;;;;;;;;;-4.99;100.00;101524.61;109459;1253;60474;-54
2024/02/27 02:24:20;;;;;;;;;;;;;;;-5.02;100.00;101524.39;109467;1253;59491;-52
2024/02/27 02:26:47;;;;;;;;;;;;;;;-5.05;100.00;101524.83;109430;1253;74736;-53
2024/02/27 02:29:15;;;;;;;;;;;;;;;-5.08;100.00;101529.33;109493;1252;65037;-53
2024/02/27 02:32:16;;;;;;;;;;;;;;;-5.10;100.00;101535.64;109473;1253;72661;-53
2024/02/27 02:34:45;;;;;;;;;;;;;;;-5.10;100.00;101538.71;109474;1251;60382;-52
2024/02/27 02:37:13;;;;;;;;;;;;;;;-5.11;100.00;101536.38;109443;1252;58920;-52
2024/02/27 02:39:40;;;;;;;;;;;;;;;-5.12;100.00;101536.23;109486;1253;73740;-53
2024/02/27 02:42:08;;;;;;;;;;;;;;;-5.16;100.00;101539.91;109464;1252;66212;-58
2024/02/27 02:44:36;;;;;;;;;;;;;;;-5.16;100.00;101542.80;109474;1253;72672;-52
2024/02/27 02:47:03;;;;;;;;;;;;;;;-5.19;100.00;101542.72;109432;1251;62179;-52
2024/02/27 02:49:31;;;;;;;;;;;;;;;-5.19;100.00;101547.47;109469;1253;59901;-53
2024/02/27 02:51:59;;;;;;;;;;;;;;;-5.19;100.00;101547.48;109485;1253;74733;-52
2024/02/27 02:54:26;;;;;;;;;;;;;;;-5.19;100.00;101547.80;109433;1253;66168;-53
2024/02/27 02:56:54;;;;;;;;;;;;;;;-5.19;100.00;101546.30;109425;1255;72720;-52
2024/02/27 02:59:23;;;;;;;;;;;;;;;-5.19;100.00;101548.83;109423;1252;61736;-53
2024/02/27 03:01:51;;;;;;;;;;;;;;;-5.19;100.00;101550.35;109433;1256;59866;-53
2024/02/27 03:04:18;;;;;;;;;;;;;;;-5.19;100.00;101547.98;109458;1254;73550;-59
2024/02/27 03:06:46;;;;;;;;;;;;;;;-5.20;100.00;101551.22;109446;1251;65713;-53
2024/02/27 03:09:13;;;;;;;;;;;;;;;-5.22;100.00;101549.62;109446;1254;71419;-53
2024/02/27 03:11:41;;;;;;;;;;;;;;;-5.25;100.00;101551.40;109415;1253;60825;-53
2024/02/27 03:14:08;;;;;;;;;;;;;;;-5.28;100.00;101547.74;109465;1253;59879;-52
2024/02/27 03:16:36;;;;;;;;;;;;;;;-5.26;100.00;101551.44;109371;1252;73453;-53
2024/02/27 03:19:03;;;;;;;;;;;;;;;-5.26;100.00;101548.55;109481;1253;66921;-52
2024/02/27 03:21:32;;;;;;;;;;;;;;;-5.26;100.00;101553.30;109452;1254;72700;-53
2024/02/27 03:24:00;;;;;;;;;;;;;;;-5.27;100.00;101556.90;109465;1254;62600;-53
2024/02/27 03:26:28;;;;;;;;;;;;;;;-5.28;100.00;101557.25;109474;1253;58903;-60
2024/02/27 03:28:56;;;;;;;;;;;;;;;-5.27;100.00;101557.56;109396;1251;75631;-54
2024/02/27 03:31:23;;;;;;;;;;;;;;;-5.26;100.00;101559.91;109372;1254;65838;-53
2024/02/27 03:33:51;;;;;;;;;;;;;;;-5.27;100.00;101557.56;109450;1251;73132;-53
2024/02/27 03:36:18;;;;;;;;;;;;;;;-5.29;100.00;101555.26;109410;1252;61686;-53
2024/02/27 03:38:46;;;;;;;;;;;;;;;-5.31;100.00;101555.32;109441;1256;60482;-52
2024/02/27 03:41:14;;;;;;;;;;;;;;;-5.32;100.00;101555.20;109487;1252;73342;-52
2024/02/27 03:43:41;;;;;;;;;;;;;;;-5.35;100.00;101556.45;109516;1252;67028;-53
2024/02/27 03:46:09;;;;;;;;;;;;;;;-5.35;100.00;101557.33;109515;1254;72736;-53
2024/02/27 03:48:37;;;;;;;;;;;;;;;-5.36;100.00;101558.02;109397;1253;60184;-53
2024/02/27 03:51:04;;;;;;;;;;;;;;;-5.35;100.00;101557.32;109490;1253;60027;-52
2024/02/27 03:53:32;;;;;;;;;;;;;;;-5.36;100.00;101556.66;109459;1253;73430;-55
2024/02/27 03:55:59;;;;;;;;;;;;;;;-5.35;100.00;101556.48;109427;1252;67114;-56
2024/02/27 03:58:27;;;;;;;;;;;;;;;-5.37;100.00;101558.91;109400;1254;72680;-58
2024/02/27 04:00:55;;;;;;;;;;;;;;;-5.40;100.00;101554.92;109391;1254;62416;-52
2024/02/27 04:03:22;;;;;;;;;;;;;;;-5.39;100.00;101554.23;109459;1254;58970;-53
2024/02/27 04:05:50;;;;;;;;;;;;;;;-5.37;100.00;101554.66;109456;1253;72497;-53
2024/02/27 04:08:18;;;;;;;;;;;;;;;-5.37;100.00;101557.56;109451;1253;65190;-52
2024/02/27 04:10:45;;;;;;;;;;;;;;;-5.37;100.00;101562.13;109357;1254;72742;-55
2024/02/27 04:13:13;;;;;;;;;;;;;;;-5.37;100.00;101566.37;109390;1256;59318;-53
2024/02/27 04:15:40;;;;;;;;;;;;;;;-5.37;100.00;101568.07;109418;1253;58870;-53
2024/02/27 04:18:08;;;;;;;;;;;;;;;-5.39;100.00;101569.45;109398;1253;73791;-54
2024/02/27 04:20:35;;;;;;;;;;;;;;;-5.40;100.00;101572.54;109405;1251;66218;-53
2024/02/27 04:23:03;;;;;;;;;;;;;;;-5.36;100.00;101574.63;109373;1254;72706;-53
2024/02/27 04:25:31;;;;;;;;;;;;;;;-5.24;100.00;101576.64;109409;1253;61932;-53
2024/02/27 04:27:59;;;;;;;;;;;;;;;-5.07;100.00;101579.80;109420;1253;59993;-60
2024/02/27 04:30:26;;;;;;;;;;;;;;;-4.83;100.00;101583.58;109456;1253;73485;-53
2024/02/27 04:32:54;;;;;;;;;;;;;;;-4.57;100.00;101586.92;109411;1254;66930;-57
2024/02/27 04:35:23;;;;;;;;;;;;;;;-4.32;100.00;101588.41;109439;1254;71404;-52
2024/02/27 04:37:50;;;;;;;;;;;;;;;-4.10;100.00;101590.31;109386;1251;60456;-53
2024/02/27 04:40:18;;;;;;;;;;;;;;;-3.88;100.00;101594.78;109446;1251;60331;-53
2024/02/27 04:42:45;;;;;;;;;;;;;;;-3.66;100.00;101592.73;109419;1251;74758;-53
2024/02/27 04:45:13;;;;;;;;;;;;;;;-3.48;100.00;101599.55;109452;1253;67657;-53
2024/02/27 04:47:40;;;;;;;;;;;;;;;-3.38;100.00;101604.39;109427;1254;72741;-53
2024/02/27 04:50:08;;;;;;;;;;;;;;;-3.37;100.00;101606.93;109419;1253;61769;-52
2024/02/27 04:52:36;;;;;;;;;;;;;;;-3.37;100.00;101608.77;109371;1252;59883;-53
2024/02/27 04:55:04;;;;;;;;;;;;;;;-3.34;100.00;101610.54;109371;1254;74726;-59
2024/02/27 04:57:31;;;;;;;;;;;;;;;-3.30;100.00;101612.61;109349;1254;67850;-52
2024/02/27 04:59:59;;;;;;;;;;;;;;;-3.25;100.00;101614.79;109382;1254;72721;-54
2024/02/27 05:02:26;;;;;;;;;;;;;;;-3.20;100.00;101607.77;109382;1253;61771;-52
2024/02/27 05:04:54;;;;;;;;;;;;;;;-3.12;100.00;101605.26;109384;1253;58981;-53
2024/02/27 05:07:21;;;;;;;;;;;;;;;-3.05;100.00;101610.58;109301;1252;74667;-52
2024/02/27 05:09:49;;;;;;;;;;;;;;;-3.00;100.00;101612.06;109348;1254;67070;-53
2024/02/27 05:12:16;;;;;;;;;;;;;;;-2.98;100.00;101607.90;109366;1253;71379;-53
2024/02/27 05:14:44;;;;;;;;;;;;;;;-2.94;100.00;101610.61;109412;1254;59950;-54
2024/02/27 05:17:11;;;;;;;;;;;;;;;-2.87;100.00;101611.36;109468;1251;58977;-60
2024/02/27 05:19:39;;;;;;;;;;;;;;;-2.81;100.00;101612.64;109451;1251;74782;-53
2024/02/27 05:22:06;;;;;;;;;;;;;;;-2.74;100.00;101609.80;109477;1251;65534;-53
2024/02/27 05:24:34;;;;;;;;;;;;;;;-2.68;100.00;101606.16;109497;1251;72710;-54
2024/02/27 05:27:01;;;;;;;;;;;;;;;-2.60;100.00;101605.63;109519;1251;58892;-53
2024/02/27 05:29:32;;;;;;;;;;;;;;;-2.52;100.00;101607.65;109508;1251;59435;-54
2024/02/27 05:32:00;;;;;;;;;;;;;;;-2.48;100.00;101605.47;109398;1253;74706;-54
2024/02/27 05:34:27;;;;;;;;;;;;;;;-2.36;100.00;101609.70;109358;1254;67589;-53
2024/02/27 05:36:55;;;;;;;;;;;;;;;-2.25;100.00;101611.09;109400;1253;72755;-53
2024/02/27 05:39:23;;;;;;;;;;;;;;;-2.17;100.00;101610.23;109427;1253;58952;-53
2024/02/27 05:41:51;;;;;;;;;;;;;;;-2.09;100.00;101610.73;109449;1253;60580;-54
2024/02/27 05:44:19;;;;;;;;;;;;;;;-2.01;100.00;101604.22;109503;1253;72701;-54
2024/02/27 05:46:46;;;;;;;;;;;;;;;-1.91;100.00;101607.23;109433;1254;65809;-53
2024/02/27 05:49:13;;;;;;;;;;;;;;;-1.77;100.00;101607.08;109440;1253;70994;-54
2024/02/27 05:51:41;;;;;;;;;;;;;;;-1.62;100.00;101611.52;109381;1251;59031;-54
2024/02/27 05:54:09;;;;;;;;;;;;;;;-1.53;100.00;101612.45;109529;1251;59662;-53
2024/02/27 05:56:37;;;;;;;;;;;;;;;-1.41;100.00;101608.13;109540;1251;74685;-54
2024/02/27 05:59:04;;;;;;;;;;;;;;;-1.24;100.00;101610.02;109525;1250;66937;-54
2024/02/27 06:01:32;;;;;;;;;;;;;;;-0.99;100.00;101607.99;109461;1251;72711;-54
2024/02/27 06:04:00;;;;;;;;;;;;;;;-0.62;100.00;101601.87;109555;1251;58880;-54
2024/02/27 06:06:28;;;;;;;;;;;;;;;-0.05;100.00;101608.27;109538;1250;58914;-54
2024/02/27 06:08:55;;;;;;;;;;;;;;;0.52;100.00;101600.61;109575;1251;74747;-54
2024/02/27 06:11:23;;;;;;;;;;;;;;;0.99;100.00;101600.15;109512;1251;65509;-55
2024/02/27 06:13:51;;;;;;;;;;;;;;;1.40;100.00;101589.36;109552;1251;73113;-54
2024/02/27 06:16:18;;;;;;;;;;;;;;;1.87;100.00;101588.45;109517;1251;59550;-54
2024/02/27 06:18:47;;;;;;;;;;;;;;;2.23;100.00;101580.89;109567;1251;59842;-55
2024/02/27 06:24:01;;;;;;;;;;;;;;;2.71;100.00;101573.34;109562;1250;66947;-54
2024/02/27 06:26:29;;;;;;;;;;;;;;;2.94;100.00;101574.61;109526;1251;71413;-55
2024/02/27 06:28:56;;;;;;;;;;;;;;;3.20;100.00;101581.98;109348;1254;59392;-56
2024/02/27 06:31:24;;;;;;;;;;;;;;;3.33;100.00;101581.41;109351;1252;59532;-57
2024/02/27 06:33:51;;;;;;;;;;;;;;;3.53;100.00;101579.05;109383;1254;73782;-53
2024/02/27 06:36:19;;;;;;;;;;;;;;;3.77;100.00;101585.68;109459;1252;66917;-55
2024/02/27 06:38:46;;;;;;;;;;;;;;;3.95;100.00;101580.98;109364;1253;73578;-55
2024/02/27 06:41:14;;;;;;;;;;;;;;;4.09;100.00;101580.31;109365;1253;59345;-60
2024/02/27 06:43:41;;;;;;;;;;;;;;;4.22;100.00;101586.63;109315;1254;60033;-53
2024/02/27 06:46:09;;;;;;;;;;;;;;;4.29;100.00;101587.67;109426;1252;74693;-53
2024/02/27 06:48:36;;;;;;;;;;;;;;;4.36;100.00;101586.45;109425;1253;66131;-54
2024/02/27 06:51:06;;;;;;;;;;;;;;;4.45;100.00;101588.27;109433;1253;71911;-53
2024/02/27 06:53:34;;;;;;;;;;;;;;;4.60;98.30;101591.10;109389;1251;59412;-54
2024/02/27 06:56:02;;;;;;;;;;;;;;;4.70;91.88;101591.77;109449;1252;59797;-53
2024/02/27 06:58:29;;;;;;;;;;;;;;;4.78;88.31;101597.23;109380;1252;74788;-53
2024/02/27 07:00:58;;;;;;;;;;;;;;;4.84;83.74;101593.35;109480;1253;65867;-53
2024/02/27 07:03:26;;;;;;;;;;;;;;;4.93;80.92;101594.06;109394;1252;72808;-58
2024/02/27 07:05:53;;;;;;;;;;;;;;;5.05;79.25;101595.23;109351;1252;59368;-55
2024/02/27 07:08:21;;;;;;;;;;;;;;;5.28;75.73;101595.74;109393;1253;59040;-54
2024/02/27 07:10:48;;;;;;;;;;;;;;;5.44;72.03;101595.01;109343;1253;76753;-53
2024/02/27 07:13:17;;;;;;;;;;;;;;;5.57;69.30;101593.55;109158;1253;224769;-53
2024/02/27 07:15:46;;;;;;;;;;;;;;;5.71;67.93;101591.23;109345;1252;74317;-54
2024/02/27 07:18:15;;;;;;;;;;;;;;;5.92;64.43;101599.27;109444;1253;58881;-54
2024/02/27 07:20:45;;;;;;;;;;;;;;;5.95;61.80;101588.67;109491;1251;58934;-53
2024/02/27 07:23:13;;;;;;;;;;;;;;;6.04;60.81;101590.05;109461;1251;74609;-54
2024/02/27 07:25:40;;;;;;;;;;;;;;;6.20;60.45;101584.81;109451;1253;67632;-59
2024/02/27 07:28:09;;;;;;;;;;;;;;;6.41;58.78;101591.98;109458;1252;74255;-54
2024/02/27 07:30:48;;;;;;;;;;;;;;;6.51;56.56;101588.19;109473;1252;59363;-53
2024/02/27 07:33:16;;;;;;;;;;;;;;;6.66;55.45;101582.68;109505;1253;61759;-54
2024/02/27 07:35:43;;;;;;;;;;;;;;;6.79;54.46;101579.70;109439;1251;73453;-54
2024/02/27 07:38:11;;;;;;;;;;;;;;;6.98;53.33;101587.00;109453;1252;65649;-54
2024/02/27 07:40:39;;;;;;;;;;;;;;;7.05;51.39;101588.45;109484;1252;71378;-55
2024/02/27 07:43:06;;;;;;;;;;;;;;;7.05;50.66;101596.59;109427;1253;59482;-56
2024/02/27 07:45:34;;;;;;;;;;;;;;;7.10;50.31;101598.21;109420;1252;61895;-54
2024/02/27 07:48:02;;;;;;;;;;;;;;;7.22;49.26;101592.11;109473;1252;76861;-54
2024/02/27 07:50:30;;;;;;;;;;;;;;;7.25;48.73;101599.23;109434;1251;68086;-54
2024/02/27 07:52:58;;;;;;;;;;;;;;;7.28;48.41;101602.30;109488;1251;74798;-53
2024/02/27 07:55:26;;;;;;;;;;;;;;;7.34;47.97;101596.56;109467;1251;60344;-55
2024/02/27 07:57:54;;;;;;;;;;;;;;;7.38;47.23;101597.80;109479;1251;61995;-54
2024/02/27 08:00:21;;;;;;;;;;;;;;;7.35;47.00;101587.00;109525;1251;74881;-53
2024/02/27 08:02:51;;;;;;;;;;;;;;;7.44;47.33;101587.60;109480;1251;69321;-53
2024/02/27 08:05:21;;;;;;;;;;;;;;;7.58;46.99;101591.11;109412;1251;74722;-59
2024/02/27 08:07:48;;;;;;;;;;;;;;;7.64;46.24;101585.75;109427;1251;62581;-53
2024/02/27 08:10:16;;;;;;;;;;;;;;;7.62;45.90;101585.35;109548;1251;59304;-54
2024/02/27 08:12:43;;;;;;;;;;;;;;;7.63;45.97;101584.14;109475;1251;76309;-54
2024/02/27 08:15:11;;;;;;;;;;;;;;;7.73;46.00;101580.09;109419;1251;67086;-55
2024/02/27 08:17:39;;;;;;;;;;;;;;;7.84;45.47;101584.59;109466;1251;73946;-53
2024/02/27 08:20:07;;;;;;;;;;;;;;;7.93;45.04;101594.66;109489;1251;61187;-54
2024/02/27 08:22:35;;;;;;;;;;;;;;;7.93;44.56;101588.93;109467;1251;59378;-54
2024/02/27 08:25:03;;;;;;;;;;;;;;;7.97;44.77;101584.64;109430;1251;78122;-54
2024/02/27 08:27:31;;;;;;;;;;;;;;;8.10;45.10;101582.13;109450;1251;69836;-60
2024/02/27 08:29:59;;;;;;;;;;;;;;;8.39;44.84;101583.70;109461;1251;74785;-57
2024/02/27 08:32:26;;;;;;;;;;;;;;;8.71;44.18;101585.16;109444;1251;62185;-59
2024/02/27 08:34:54;;;;;;;;;;;;;;;8.90;42.91;101588.21;109330;1253;61275;-59
2024/02/27 08:37:24;;;;;;;;;;;;;;;8.88;42.51;101586.42;109348;1253;75665;-59
2024/02/27 08:39:52;;;;;;;;;;;;;;;8.79;41.90;101590.05;109361;1253;70643;-55
2024/02/27 08:42:20;;;;;;;;;;;;;;;8.65;42.16;101581.06;109356;1252;74788;-54
2024/02/27 08:44:48;;;;;;;;;;;;;;;8.61;42.03;101581.66;109375;1253;61102;-56
2024/02/27 08:47:15;;;;;;;;;;;;;;;8.57;41.77;101579.38;109443;1252;61108;-55
2024/02/27 08:49:43;;;;;;;;;;;;;;;8.55;41.87;101574.89;109530;1252;75632;-57
2024/02/27 08:52:11;;;;;;;;;;;;;;;8.63;42.16;101576.41;109431;1253;70707;-55
2024/02/27 08:54:39;;;;;;;;;;;;;;;8.82;42.41;101573.34;109466;1251;74907;-56
2024/02/27 08:57:06;;;;;;;;;;;;;;;9.08;42.13;101572.11;109408;1253;62604;-60
2024/02/27 08:59:34;;;;;;;;;;;;;;;9.27;41.10;101573.13;109395;1252;60129;-55
2024/02/27 09:02:02;;;;;;;;;;;;;;;9.40;40.56;101566.17;109521;1251;76671;-55
2024/02/27 09:04:32;;;;;;;;;;;;;;;9.48;40.23;101569.08;109494;1252;69168;-58
2024/02/27 09:06:59;;;;;;;;;;;;;;;9.64;40.11;101572.48;109459;1251;74778;-60
2024/02/27 09:09:28;;;;;;;;;;;;;;;9.85;39.21;101563.77;109399;1251;61074;-54
2024/02/27 09:11:57;;;;;;;;;;;;;;;9.98;38.50;101557.77;109470;1252;62568;-56
2024/02/27 09:14:25;;;;;;;;;;;;;;;10.07;38.03;101561.49;109479;1251;75833;-58
2024/02/27 09:16:53;;;;;;;;;;;;;;;10.04;37.82;101560.41;109520;1251;69297;-60
2024/02/27 09:19:21;;;;;;;;;;;;;;;10.04;38.11;101550.23;109362;1253;73688;-56
2024/02/27 09:21:49;;;;;;;;;;;;;;;10.14;37.99;101551.07;109458;1252;62171;-55
2024/02/27 09:24:17;;;;;;;;;;;;;;;10.20;38.10;101544.16;109488;1251;62356;-53
2024/02/27 09:26:45;;;;;;;;;;;;;;;10.35;38.06;101542.94;109478;1251;76742;-52
2024/02/27 09:29:13;;;;;;;;;;;;;;;10.52;37.07;101541.12;109436;1253;66915;-57
2024/02/27 09:31:42;;;;;;;;;;;;;;;10.60;36.04;101535.46;109445;1252;75453;-53
2024/02/27 09:34:10;;;;;;;;;;;;;;;10.78;34.94;101536.94;109398;1251;63490;-53
2024/02/27 09:36:38;;;;;;;;;;;;;;;10.95;32.28;101539.20;109479;1253;60710;-54
2024/02/27 09:39:09;;;;;;;;;;;;;;;10.93;30.97;101532.00;109460;1251;75640;-54
2024/02/27 09:41:56;;;;;;;;;;;;;;;10.87;30.34;101536.73;109431;1251;68785;-54
2024/02/27 09:44:24;;;;;;;;;;;;;;;10.84;30.13;101523.77;109427;1251;73716;-53
2024/02/27 09:46:51;;;;;;;;;;;;;;;10.91;29.92;101524.63;109466;1251;61113;-52
2024/02/27 09:49:19;;;;;;;;;;;;;;;11.11;29.50;101517.27;109432;1251;59643;-53
2024/02/27 09:52:03;;;;;;;;;;;;;;;11.26;30.07;101518.59;109439;1251;75595;-53
2024/02/27 09:54:31;;;;;;;;;;;;;;;11.39;30.46;101514.98;109471;1251;68833;-52
2024/02/27 09:56:59;;;;;;;;;;;;;;;11.49;32.18;101515.18;109434;1251;73754;-57
2024/02/27 09:59:26;;;;;;;;;;;;;;;11.58;31.73;101516.10;109408;1251;61100;-52
2024/02/27 10:01:55;;;;;;;;;;;;;;;11.59;29.66;101515.80;109420;1251;61068;-52
2024/02/27 10:04:23;;;;;;;;;;;;;;;11.48;29.15;101517.33;109460;1251;76053;-52
2024/02/27 10:06:51;;;;;;;;;;;;;;;11.42;28.63;101517.90;109419;1251;69131;-53
2024/02/27 10:09:19;;;;;;;;;;;;;;;11.40;28.19;101525.27;109324;1252;74732;-58
2024/02/27 10:11:47;;;;;;;;;;;;;;;11.34;28.14;101513.43;109269;1253;62575;-54
2024/02/27 10:14:15;;;;;;;;;;;;;;;11.40;28.06;101520.17;109369;1252;61948;-52
2024/02/27 10:16:43;;;;;;;;;;;;;;;11.45;28.11;101509.59;109385;1252;76550;-53
2024/02/27 10:19:10;;;;;;;;;;;;;;;11.58;28.50;101507.80;109315;1254;67805;-52
2024/02/27 10:21:38;;;;;;;;;;;;;;;11.74;28.61;101508.23;109453;1252;76126;-52
2024/02/27 10:24:06;;;;;;;;;;;;;;;11.67;28.68;101501.80;109318;1251;61170;-54
2024/02/27 10:26:33;;;;;;;;;;;;;;;11.58;28.76;101513.31;109439;1251;61815;-53
2024/02/27 10:29:01;;;;;;;;;;;;;;;11.56;27.83;101509.79;109527;1251;76330;-53
2024/02/27 10:31:29;;;;;;;;;;;;;;;11.62;27.62;101511.92;109379;1251;67932;-58
2024/02/27 10:33:57;;;;;;;;;;;;;;;11.70;26.97;101502.32;109440;1251;73695;-53
2024/02/27 10:36:25;;;;;;;;;;;;;;;11.75;27.17;101492.92;109445;1251;61642;-53
2024/02/27 10:38:54;;;;;;;;;;;;;;;11.90;26.69;101490.20;109455;1251;61824;-54
2024/02/27 10:41:22;;;;;;;;;;;;;;;11.96;26.56;101494.59;109374;1251;76665;-53
2024/02/27 10:43:49;;;;;;;;;;;;;;;11.98;27.08;101506.59;109438;1251;68860;-53
2024/02/27 10:46:17;;;;;;;;;;;;;;;11.94;27.21;101488.73;109484;1251;74833;-54
2024/02/27 10:48:45;;;;;;;;;;;;;;;11.90;27.30;101495.17;109294;1251;61096;-53
2024/02/27 10:51:13;;;;;;;;;;;;;;;11.82;27.24;101497.81;109432;1251;61810;-52
2024/02/27 10:53:41;;;;;;;;;;;;;;;11.71;27.34;101497.84;109459;1251;77273;-58
2024/02/27 10:56:08;;;;;;;;;;;;;;;11.65;27.01;101486.18;109324;1251;68052;-53
2024/02/27 10:58:36;;;;;;;;;;;;;;;11.60;26.10;101506.73;109426;1251;74956;-52
2024/02/27 11:01:04;;;;;;;;;;;;;;;11.54;25.29;101494.31;109430;1252;62164;-52
2024/02/27 11:03:32;;;;;;;;;;;;;;;11.47;25.24;101493.13;109476;1251;60845;-52
2024/02/27 11:06:00;;;;;;;;;;;;;;;11.39;25.45;101495.98;109428;1252;75540;-57
2024/02/27 11:08:28;;;;;;;;;;;;;;;11.35;25.58;101482.30;109394;1252;67958;-53
2024/02/27 11:10:55;;;;;;;;;;;;;;;11.45;26.28;101477.98;109353;1253;74817;-53
2024/02/27 11:13:23;;;;;;;;;;;;;;;11.69;26.04;101472.66;109467;1251;63124;-53
2024/02/27 11:15:51;;;;;;;;;;;;;;;11.85;26.20;101470.98;109396;1252;60854;-57
2024/02/27 11:18:19;;;;;;;;;;;;;;;12.05;26.00;101474.11;109379;1253;75891;-53
2024/02/27 11:20:47;;;;;;;;;;;;;;;12.12;25.99;101472.02;109458;1252;68845;-53
2024/02/27 11:23:14;;;;;;;;;;;;;;;12.01;25.79;101472.45;109330;1252;75035;-53
2024/02/27 11:25:42;;;;;;;;;;;;;;;11.90;26.00;101461.59;109494;1252;60894;-52
2024/02/27 11:28:09;;;;;;;;;;;;;;;11.91;26.17;101470.41;109264;1251;62119;-53
2024/02/27 11:30:37;;;;;;;;;;;;;;;11.98;25.64;101462.77;109439;1251;75706;-53
2024/02/27 11:33:06;;;;;;;;;;;;;;;11.97;25.79;101461.44;109516;1251;68293;-53
2024/02/27 11:35:33;;;;;;;;;;;;;;;12.02;25.32;101457.45;109416;1251;76394;-52
2024/02/27 11:38:02;;;;;;;;;;;;;;;12.02;25.87;101455.66;109428;1251;61168;-53
2024/02/27 11:40:46;;;;;;;;;;;;;;;12.13;25.89;101461.95;109447;1251;61646;-53
2024/02/27 11:43:14;;;;;;;;;;;;;;;12.18;24.95;101463.05;109492;1251;77200;-53
2024/02/27 11:45:41;;;;;;;;;;;;;;;12.03;24.95;101464.90;109466;1251;68776;-53
2024/02/27 11:48:09;;;;;;;;;;;;;;;11.92;25.01;101464.30;109420;1251;75320;-53
2024/02/27 11:50:38;;;;;;;;;;;;;;;11.88;25.14;101465.87;109413;1252;61082;-53
2024/02/27 11:53:17;;;;;;;;;;;;;;;11.87;25.48;101463.85;109442;1251;60858;-53
2024/02/27 11:55:46;;;;;;;;;;;;;;;12.00;25.40;101466.01;109397;1251;76701;-57
2024/02/27 11:58:14;;;;;;;;;;;;;;;12.07;25.48;101468.85;109375;1252;67810;-53
2024/02/27 12:00:48;;;;;;;;;;;;;;;12.08;25.65;101475.02;109393;1251;74891;-54
2024/02/27 12:03:16;;;;;;;;;;;;;;;12.06;25.27;101471.73;109353;1251;59565;-53
2024/02/27 12:05:47;;;;;;;;;;;;;;;12.06;25.25;101483.63;109400;1252;62225;-53
2024/02/27 12:08:16;;;;;;;;;;;;;;;11.97;25.38;101470.63;109428;1253;75801;-53
2024/02/27 12:10:45;;;;;;;;;;;;;;;11.88;25.52;101467.05;109452;1253;68034;-53
2024/02/27 12:13:13;;;;;;;;;;;;;;;11.88;25.43;101479.07;109366;1253;75835;-52
2024/02/27 12:15:40;;;;;;;;;;;;;;;11.88;25.46;101468.81;109356;1253;61102;-53
2024/02/27 12:18:08;;;;;;;;;;;;;;;11.92;25.41;101471.36;109250;1253;60827;-56
2024/02/27 12:20:36;;;;;;;;;;;;;;;11.95;25.67;101474.73;109309;1255;75839;-52
2024/02/27 12:23:03;;;;;;;;;;;;;;;11.96;25.31;101476.53;109378;1252;69475;-52
2024/02/27 12:25:41;;;;;;;;;;;;;;;11.90;25.58;101474.51;109370;1252;75393;-53
2024/02/27 12:28:09;;;;;;;;;;;;;;;11.88;26.02;101478.66;109278;1253;62179;-53
2024/02/27 12:30:37;;;;;;;;;;;;;;;11.88;26.26;101470.16;109305;1252;60115;-54